sensor_id;sensor_type;location;lat;lon;timestamp;temperature;humidity
21331;DHT22;10824;51.632;4.950;2022-08-27T00:01:22;17.00;88.60
21331;DHT22;10824;51.632;4.950;2022-08-27T00:03:49;16.90;89.20
21331;DHT22;10824;51.632;4.950;2022-08-27T00:06:18;16.90;89.70
21331;DHT22;10824;51.632;4.950;2022-08-27T00:08:46;16.90;90.10
21331;DHT22;10824;51.632;4.950;2022-08-27T00:11:14;16.80;90.40
21331;DHT22;10824;51.632;4.950;2022-08-27T00:13:43;16.80;90.50
21331;DHT22;10824;51.632;4.950;2022-08-27T00:16:13;16.80;90.80
21331;DHT22;10824;51.632;4.950;2022-08-27T00:18:42;16.70;91.40
21331;DHT22;10824;51.632;4.950;2022-08-27T00:21:14;16.70;91.40
21331;DHT22;10824;51.632;4.950;2022-08-27T00:23:41;16.70;91.60
21331;DHT22;10824;51.632;4.950;2022-08-27T00:26:08;16.70;91.90
21331;DHT22;10824;51.632;4.950;2022-08-27T00:28:36;16.60;91.90
21331;DHT22;10824;51.632;4.950;2022-08-27T00:31:03;16.60;91.90
21331;DHT22;10824;51.632;4.950;2022-08-27T00:33:31;16.60;91.90
21331;DHT22;10824;51.632;4.950;2022-08-27T00:35:58;16.50;92.70
21331;DHT22;10824;51.632;4.950;2022-08-27T00:38:25;16.50;93.40
21331;DHT22;10824;51.632;4.950;2022-08-27T00:40:53;16.50;93.50
21331;DHT22;10824;51.632;4.950;2022-08-27T00:43:23;16.50;93.30
21331;DHT22;10824;51.632;4.950;2022-08-27T00:45:52;16.50;93.20
21331;DHT22;10824;51.632;4.950;2022-08-27T00:48:29;16.40;93.20
21331;DHT22;10824;51.632;4.950;2022-08-27T00:50:57;16.40;94.20
21331;DHT22;10824;51.632;4.950;2022-08-27T00:53:26;16.40;94.20
21331;DHT22;10824;51.632;4.950;2022-08-27T00:55:59;16.40;94.30
21331;DHT22;10824;51.632;4.950;2022-08-27T00:58:31;16.20;94.60
21331;DHT22;10824;51.632;4.950;2022-08-27T01:00:59;16.30;94.70
21331;DHT22;10824;51.632;4.950;2022-08-27T01:03:26;16.40;94.70
21331;DHT22;10824;51.632;4.950;2022-08-27T01:05:55;16.50;94.70
21331;DHT22;10824;51.632;4.950;2022-08-27T01:08:27;16.40;94.50
21331;DHT22;10824;51.632;4.950;2022-08-27T01:10:56;16.30;95.50
21331;DHT22;10824;51.632;4.950;2022-08-27T01:13:26;16.40;94.70
21331;DHT22;10824;51.632;4.950;2022-08-27T01:16:21;16.30;94.90
21331;DHT22;10824;51.632;4.950;2022-08-27T01:18:49;16.30;95.20
21331;DHT22;10824;51.632;4.950;2022-08-27T01:24:06;16.40;94.60
21331;DHT22;10824;51.632;4.950;2022-08-27T01:26:34;16.40;95.20
21331;DHT22;10824;51.632;4.950;2022-08-27T01:29:02;16.50;93.80
21331;DHT22;10824;51.632;4.950;2022-08-27T01:31:30;16.50;93.30
21331;DHT22;10824;51.632;4.950;2022-08-27T01:34:03;16.40;93.80
21331;DHT22;10824;51.632;4.950;2022-08-27T01:36:31;16.30;94.90
21331;DHT22;10824;51.632;4.950;2022-08-27T01:38:58;16.30;95.10
21331;DHT22;10824;51.632;4.950;2022-08-27T01:41:26;16.20;95.50
21331;DHT22;10824;51.632;4.950;2022-08-27T01:43:53;16.10;95.40
21331;DHT22;10824;51.632;4.950;2022-08-27T01:46:23;16.20;95.40
21331;DHT22;10824;51.632;4.950;2022-08-27T01:48:51;16.20;96.00
21331;DHT22;10824;51.632;4.950;2022-08-27T01:51:19;16.10;96.50
21331;DHT22;10824;51.632;4.950;2022-08-27T01:53:47;16.00;96.80
21331;DHT22;10824;51.632;4.950;2022-08-27T01:56:14;16.10;96.80
21331;DHT22;10824;51.632;4.950;2022-08-27T01:58:41;16.10;97.00
21331;DHT22;10824;51.632;4.950;2022-08-27T02:01:11;16.20;96.20
21331;DHT22;10824;51.632;4.950;2022-08-27T02:03:40;16.20;95.80
21331;DHT22;10824;51.632;4.950;2022-08-27T02:06:09;16.20;95.50
21331;DHT22;10824;51.632;4.950;2022-08-27T02:08:37;16.10;95.90
21331;DHT22;10824;51.632;4.950;2022-08-27T02:11:06;16.10;96.30
21331;DHT22;10824;51.632;4.950;2022-08-27T02:13:34;16.10;96.30
21331;DHT22;10824;51.632;4.950;2022-08-27T02:16:01;16.10;96.40
21331;DHT22;10824;51.632;4.950;2022-08-27T02:18:28;16.00;96.40
21331;DHT22;10824;51.632;4.950;2022-08-27T02:20:55;16.00;97.60
21331;DHT22;10824;51.632;4.950;2022-08-27T02:23:22;16.10;96.90
21331;DHT22;10824;51.632;4.950;2022-08-27T02:25:49;16.20;96.20
21331;DHT22;10824;51.632;4.950;2022-08-27T02:28:18;16.10;97.00
21331;DHT22;10824;51.632;4.950;2022-08-27T02:30:45;16.00;97.30
21331;DHT22;10824;51.632;4.950;2022-08-27T02:33:12;16.10;97.40
21331;DHT22;10824;51.632;4.950;2022-08-27T02:35:39;16.20;97.00
21331;DHT22;10824;51.632;4.950;2022-08-27T02:38:09;16.10;96.70
21331;DHT22;10824;51.632;4.950;2022-08-27T02:40:38;16.10;97.20
21331;DHT22;10824;51.632;4.950;2022-08-27T02:43:06;16.20;96.90
21331;DHT22;10824;51.632;4.950;2022-08-27T02:45:33;16.10;97.50
21331;DHT22;10824;51.632;4.950;2022-08-27T02:48:03;16.20;97.00
21331;DHT22;10824;51.632;4.950;2022-08-27T02:50:31;16.20;96.50
21331;DHT22;10824;51.632;4.950;2022-08-27T02:53:00;16.20;96.70
21331;DHT22;10824;51.632;4.950;2022-08-27T02:55:28;16.20;97.10
21331;DHT22;10824;51.632;4.950;2022-08-27T02:57:56;16.20;96.70
21331;DHT22;10824;51.632;4.950;2022-08-27T03:00:24;16.30;97.00
21331;DHT22;10824;51.632;4.950;2022-08-27T03:02:51;16.20;97.40
21331;DHT22;10824;51.632;4.950;2022-08-27T03:05:19;16.30;97.20
21331;DHT22;10824;51.632;4.950;2022-08-27T03:07:46;16.40;96.50
21331;DHT22;10824;51.632;4.950;2022-08-27T03:10:15;16.30;96.10
21331;DHT22;10824;51.632;4.950;2022-08-27T03:12:42;16.20;96.70
21331;DHT22;10824;51.632;4.950;2022-08-27T03:15:13;16.20;97.60
21331;DHT22;10824;51.632;4.950;2022-08-27T03:17:41;16.20;98.30
21331;DHT22;10824;51.632;4.950;2022-08-27T03:20:27;16.30;97.50
21331;DHT22;10824;51.632;4.950;2022-08-27T03:22:54;16.30;96.70
21331;DHT22;10824;51.632;4.950;2022-08-27T03:25:21;16.30;97.00
21331;DHT22;10824;51.632;4.950;2022-08-27T03:27:48;16.30;97.00
21331;DHT22;10824;51.632;4.950;2022-08-27T03:30:19;16.20;97.50
21331;DHT22;10824;51.632;4.950;2022-08-27T03:32:46;16.10;98.20
21331;DHT22;10824;51.632;4.950;2022-08-27T03:35:13;16.20;97.80
21331;DHT22;10824;51.632;4.950;2022-08-27T03:37:40;16.30;97.70
21331;DHT22;10824;51.632;4.950;2022-08-27T03:40:08;16.30;97.70
21331;DHT22;10824;51.632;4.950;2022-08-27T03:42:36;16.20;98.60
21331;DHT22;10824;51.632;4.950;2022-08-27T03:45:04;16.20;98.50
21331;DHT22;10824;51.632;4.950;2022-08-27T03:47:31;16.20;98.70
21331;DHT22;10824;51.632;4.950;2022-08-27T03:49:59;16.30;98.50
21331;DHT22;10824;51.632;4.950;2022-08-27T03:52:27;16.30;98.20
21331;DHT22;10824;51.632;4.950;2022-08-27T03:54:54;16.30;98.10
21331;DHT22;10824;51.632;4.950;2022-08-27T03:57:22;16.30;97.70
21331;DHT22;10824;51.632;4.950;2022-08-27T03:59:50;16.20;98.20
21331;DHT22;10824;51.632;4.950;2022-08-27T04:02:20;16.30;98.70
21331;DHT22;10824;51.632;4.950;2022-08-27T04:04:49;16.40;97.80
21331;DHT22;10824;51.632;4.950;2022-08-27T04:07:19;16.40;97.40
21331;DHT22;10824;51.632;4.950;2022-08-27T04:09:46;16.30;98.10
21331;DHT22;10824;51.632;4.950;2022-08-27T04:12:13;16.30;98.30
21331;DHT22;10824;51.632;4.950;2022-08-27T04:14:40;16.20;98.60
21331;DHT22;10824;51.632;4.950;2022-08-27T04:17:07;16.20;99.40
21331;DHT22;10824;51.632;4.950;2022-08-27T04:19:35;16.20;99.20
21331;DHT22;10824;51.632;4.950;2022-08-27T04:22:04;16.20;99.40
21331;DHT22;10824;51.632;4.950;2022-08-27T04:24:35;16.20;99.50
21331;DHT22;10824;51.632;4.950;2022-08-27T04:27:03;16.20;99.10
21331;DHT22;10824;51.632;4.950;2022-08-27T04:29:31;16.30;98.50
21331;DHT22;10824;51.632;4.950;2022-08-27T04:31:58;16.20;98.90
21331;DHT22;10824;51.632;4.950;2022-08-27T04:34:25;16.20;98.90
21331;DHT22;10824;51.632;4.950;2022-08-27T04:36:56;16.20;99.50
21331;DHT22;10824;51.632;4.950;2022-08-27T04:39:27;16.10;99.20
21331;DHT22;10824;51.632;4.950;2022-08-27T04:41:56;16.10;99.10
21331;DHT22;10824;51.632;4.950;2022-08-27T04:44:28;16.10;99.40
21331;DHT22;10824;51.632;4.950;2022-08-27T04:47:00;16.10;99.40
21331;DHT22;10824;51.632;4.950;2022-08-27T04:49:28;16.10;99.30
21331;DHT22;10824;51.632;4.950;2022-08-27T04:51:57;16.10;99.40
21331;DHT22;10824;51.632;4.950;2022-08-27T04:54:24;16.10;99.80
21331;DHT22;10824;51.632;4.950;2022-08-27T04:56:59;16.10;99.50
21331;DHT22;10824;51.632;4.950;2022-08-27T04:59:26;16.10;99.40
21331;DHT22;10824;51.632;4.950;2022-08-27T05:01:54;16.00;99.40
21331;DHT22;10824;51.632;4.950;2022-08-27T05:04:22;16.00;99.90
21331;DHT22;10824;51.632;4.950;2022-08-27T05:06:52;16.00;99.90
21331;DHT22;10824;51.632;4.950;2022-08-27T05:09:20;16.00;99.90
21331;DHT22;10824;51.632;4.950;2022-08-27T05:11:53;16.00;99.60
21331;DHT22;10824;51.632;4.950;2022-08-27T05:14:21;16.00;99.60
21331;DHT22;10824;51.632;4.950;2022-08-27T05:16:50;16.00;99.80
21331;DHT22;10824;51.632;4.950;2022-08-27T05:19:17;16.10;99.60
21331;DHT22;10824;51.632;4.950;2022-08-27T05:21:48;16.10;99.10
21331;DHT22;10824;51.632;4.950;2022-08-27T05:24:20;16.00;99.50
21331;DHT22;10824;51.632;4.950;2022-08-27T05:26:48;16.00;99.80
21331;DHT22;10824;51.632;4.950;2022-08-27T05:29:15;15.90;99.90
21331;DHT22;10824;51.632;4.950;2022-08-27T05:31:46;16.00;99.90
21331;DHT22;10824;51.632;4.950;2022-08-27T05:34:14;16.00;99.80
21331;DHT22;10824;51.632;4.950;2022-08-27T05:36:52;16.00;99.90
21331;DHT22;10824;51.632;4.950;2022-08-27T05:39:20;16.00;99.90
21331;DHT22;10824;51.632;4.950;2022-08-27T05:41:48;16.00;99.90
21331;DHT22;10824;51.632;4.950;2022-08-27T05:44:14;15.90;99.90
21331;DHT22;10824;51.632;4.950;2022-08-27T05:47:03;15.90;99.90
21331;DHT22;10824;51.632;4.950;2022-08-27T05:49:30;15.90;99.90
21331;DHT22;10824;51.632;4.950;2022-08-27T05:51:57;16.10;99.90
21331;DHT22;10824;51.632;4.950;2022-08-27T05:54:24;16.20;99.90
21331;DHT22;10824;51.632;4.950;2022-08-27T05:56:51;16.30;99.30
21331;DHT22;10824;51.632;4.950;2022-08-27T05:59:18;16.30;98.50
21331;DHT22;10824;51.632;4.950;2022-08-27T06:02:04;16.40;98.70
21331;DHT22;10824;51.632;4.950;2022-08-27T06:04:33;16.40;98.40
21331;DHT22;10824;51.632;4.950;2022-08-27T06:07:00;16.50;98.60
21331;DHT22;10824;51.632;4.950;2022-08-27T06:09:28;16.60;97.60
21331;DHT22;10824;51.632;4.950;2022-08-27T06:11:57;16.80;96.60
21331;DHT22;10824;51.632;4.950;2022-08-27T06:14:24;16.80;95.80
21331;DHT22;10824;51.632;4.950;2022-08-27T06:16:52;17.00;94.70
21331;DHT22;10824;51.632;4.950;2022-08-27T06:19:20;17.00;95.10
21331;DHT22;10824;51.632;4.950;2022-08-27T06:21:47;16.90;95.60
21331;DHT22;10824;51.632;4.950;2022-08-27T06:24:35;16.90;96.20
21331;DHT22;10824;51.632;4.950;2022-08-27T06:27:03;17.00;96.30
21331;DHT22;10824;51.632;4.950;2022-08-27T06:29:30;17.00;96.60
21331;DHT22;10824;51.632;4.950;2022-08-27T06:31:58;17.00;96.40
21331;DHT22;10824;51.632;4.950;2022-08-27T06:34:26;17.10;96.50
21331;DHT22;10824;51.632;4.950;2022-08-27T06:36:53;17.20;95.50
21331;DHT22;10824;51.632;4.950;2022-08-27T06:39:20;17.30;95.30
21331;DHT22;10824;51.632;4.950;2022-08-27T06:41:48;17.30;95.30
21331;DHT22;10824;51.632;4.950;2022-08-27T06:44:20;17.40;95.00
21331;DHT22;10824;51.632;4.950;2022-08-27T06:46:48;17.40;96.20
21331;DHT22;10824;51.632;4.950;2022-08-27T06:49:16;17.40;95.10
21331;DHT22;10824;51.632;4.950;2022-08-27T06:51:45;17.40;95.40
21331;DHT22;10824;51.632;4.950;2022-08-27T06:54:13;17.40;95.70
21331;DHT22;10824;51.632;4.950;2022-08-27T06:56:42;17.40;96.20
21331;DHT22;10824;51.632;4.950;2022-08-27T06:59:13;17.50;95.90
21331;DHT22;10824;51.632;4.950;2022-08-27T07:01:43;17.60;95.10
21331;DHT22;10824;51.632;4.950;2022-08-27T07:04:15;17.60;94.80
21331;DHT22;10824;51.632;4.950;2022-08-27T07:06:43;17.60;94.30
21331;DHT22;10824;51.632;4.950;2022-08-27T07:09:11;17.80;94.20
21331;DHT22;10824;51.632;4.950;2022-08-27T07:11:38;17.90;94.20
21331;DHT22;10824;51.632;4.950;2022-08-27T07:14:06;18.00;93.70
21331;DHT22;10824;51.632;4.950;2022-08-27T07:16:34;18.10;93.20
21331;DHT22;10824;51.632;4.950;2022-08-27T07:19:03;18.10;93.00
21331;DHT22;10824;51.632;4.950;2022-08-27T07:21:32;18.20;92.10
21331;DHT22;10824;51.632;4.950;2022-08-27T07:24:01;18.30;93.30
21331;DHT22;10824;51.632;4.950;2022-08-27T07:26:36;18.50;92.90
21331;DHT22;10824;51.632;4.950;2022-08-27T07:29:04;18.70;91.50
21331;DHT22;10824;51.632;4.950;2022-08-27T07:31:32;18.80;90.60
21331;DHT22;10824;51.632;4.950;2022-08-27T07:34:02;19.00;90.70
21331;DHT22;10824;51.632;4.950;2022-08-27T07:36:30;18.90;89.90
21331;DHT22;10824;51.632;4.950;2022-08-27T07:38:57;19.00;88.30
21331;DHT22;10824;51.632;4.950;2022-08-27T07:41:31;19.20;87.80
21331;DHT22;10824;51.632;4.950;2022-08-27T07:44:01;19.30;85.80
21331;DHT22;10824;51.632;4.950;2022-08-27T07:46:53;19.30;86.70
21331;DHT22;10824;51.632;4.950;2022-08-27T07:49:22;19.10;87.80
21331;DHT22;10824;51.632;4.950;2022-08-27T07:51:50;19.20;85.60
21331;DHT22;10824;51.632;4.950;2022-08-27T07:54:20;19.20;85.70
21331;DHT22;10824;51.632;4.950;2022-08-27T07:56:48;19.30;85.90
21331;DHT22;10824;51.632;4.950;2022-08-27T07:59:22;19.50;84.50
21331;DHT22;10824;51.632;4.950;2022-08-27T08:01:53;19.60;83.50
21331;DHT22;10824;51.632;4.950;2022-08-27T08:04:20;19.40;83.50
21331;DHT22;10824;51.632;4.950;2022-08-27T08:06:49;19.40;84.10
21331;DHT22;10824;51.632;4.950;2022-08-27T08:09:17;19.40;83.20
21331;DHT22;10824;51.632;4.950;2022-08-27T08:11:44;19.50;83.60
21331;DHT22;10824;51.632;4.950;2022-08-27T08:14:11;19.60;82.20
21331;DHT22;10824;51.632;4.950;2022-08-27T08:16:38;19.70;81.10
21331;DHT22;10824;51.632;4.950;2022-08-27T08:19:06;19.90;80.40
21331;DHT22;10824;51.632;4.950;2022-08-27T08:21:35;20.10;78.90
21331;DHT22;10824;51.632;4.950;2022-08-27T08:24:04;20.10;76.90
21331;DHT22;10824;51.632;4.950;2022-08-27T08:26:31;20.10;76.60
21331;DHT22;10824;51.632;4.950;2022-08-27T08:28:58;20.00;76.90
21331;DHT22;10824;51.632;4.950;2022-08-27T08:31:26;20.00;77.20
21331;DHT22;10824;51.632;4.950;2022-08-27T08:33:53;19.90;76.50
21331;DHT22;10824;51.632;4.950;2022-08-27T08:36:20;20.00;75.50
21331;DHT22;10824;51.632;4.950;2022-08-27T08:38:50;20.10;76.10
21331;DHT22;10824;51.632;4.950;2022-08-27T08:43:55;20.20;72.40
21331;DHT22;10824;51.632;4.950;2022-08-27T08:46:32;20.40;72.60
21331;DHT22;10824;51.632;4.950;2022-08-27T08:49:31;20.50;71.00
21331;DHT22;10824;51.632;4.950;2022-08-27T08:52:28;20.50;64.60
21331;DHT22;10824;51.632;4.950;2022-08-27T09:00:31;20.70;60.80
21331;DHT22;10824;51.632;4.950;2022-08-27T09:02:59;21.00;56.80
21331;DHT22;10824;51.632;4.950;2022-08-27T09:05:26;21.10;53.70
21331;DHT22;10824;51.632;4.950;2022-08-27T09:10:46;21.20;50.50
21331;DHT22;10824;51.632;4.950;2022-08-27T09:13:21;21.10;51.00
21331;DHT22;10824;51.632;4.950;2022-08-27T09:15:53;21.10;42.80
21331;DHT22;10824;51.632;4.950;2022-08-27T09:18:20;21.00;39.30
21331;DHT22;10824;51.632;4.950;2022-08-27T09:26:32;20.90;37.10
21331;DHT22;10824;51.632;4.950;2022-08-27T09:29:10;21.00;37.00
21331;DHT22;10824;51.632;4.950;2022-08-27T09:34:23;21.40;36.10
21331;DHT22;10824;51.632;4.950;2022-08-27T09:36:56;21.60;27.80
21331;DHT22;10824;51.632;4.950;2022-08-27T09:42:32;21.50;29.40
21331;DHT22;10824;51.632;4.950;2022-08-27T09:45:01;21.50;30.00
21331;DHT22;10824;51.632;4.950;2022-08-27T09:47:49;21.50;27.60
21331;DHT22;10824;51.632;4.950;2022-08-27T09:50:19;21.30;25.60
21331;DHT22;10824;51.632;4.950;2022-08-27T09:52:57;21.60;27.20
21331;DHT22;10824;51.632;4.950;2022-08-27T09:58:45;22.10;19.60
21331;DHT22;10824;51.632;4.950;2022-08-27T10:01:24;22.30;19.40
21331;DHT22;10824;51.632;4.950;2022-08-27T10:04:14;22.50;14.80
21331;DHT22;10824;51.632;4.950;2022-08-27T10:06:47;22.60;16.40
21331;DHT22;10824;51.632;4.950;2022-08-27T10:09:34;22.50;15.30
21331;DHT22;10824;51.632;4.950;2022-08-27T10:12:36;22.60;16.80
21331;DHT22;10824;51.632;4.950;2022-08-27T10:15:05;22.60;15.50
21331;DHT22;10824;51.632;4.950;2022-08-27T10:26:03;22.50;16.20
21331;DHT22;10824;51.632;4.950;2022-08-27T10:34:19;23.00;12.40
21331;DHT22;10824;51.632;4.950;2022-08-27T10:37:08;23.10;12.00
21331;DHT22;10824;51.632;4.950;2022-08-27T10:42:25;22.70;15.60
21331;DHT22;10824;51.632;4.950;2022-08-27T10:45:32;22.70;16.10
21331;DHT22;10824;51.632;4.950;2022-08-27T10:48:21;22.80;15.60
21331;DHT22;10824;51.632;4.950;2022-08-27T10:56:43;22.90;14.40
21331;DHT22;10824;51.632;4.950;2022-08-27T10:59:44;23.10;12.60
21331;DHT22;10824;51.632;4.950;2022-08-27T11:04:55;23.70;9.90
21331;DHT22;10824;51.632;4.950;2022-08-27T11:07:31;23.70;9.20
21331;DHT22;10824;51.632;4.950;2022-08-27T11:10:03;23.70;8.60
21331;DHT22;10824;51.632;4.950;2022-08-27T11:12:38;23.80;7.30
21331;DHT22;10824;51.632;4.950;2022-08-27T11:17:50;23.10;9.30
21331;DHT22;10824;51.632;4.950;2022-08-27T11:23:30;23.30;5.40
21331;DHT22;10824;51.632;4.950;2022-08-27T11:26:02;23.30;5.60
21331;DHT22;10824;51.632;4.950;2022-08-27T11:28:41;23.40;5.20
21331;DHT22;10824;51.632;4.950;2022-08-27T11:34:24;23.90;1.00
21331;DHT22;10824;51.632;4.950;2022-08-27T11:47:52;23.00;2.70
21331;DHT22;10824;51.632;4.950;2022-08-27T11:50:25;22.90;4.60
21331;DHT22;10824;51.632;4.950;2022-08-27T11:52:57;23.10;3.20
21331;DHT22;10824;51.632;4.950;2022-08-27T11:55:34;23.30;3.60
21331;DHT22;10824;51.632;4.950;2022-08-27T12:00:46;23.40;3.90
21331;DHT22;10824;51.632;4.950;2022-08-27T12:03:29;23.00;1.80
21331;DHT22;10824;51.632;4.950;2022-08-27T12:08:30;23.30;1.00
21331;DHT22;10824;51.632;4.950;2022-08-27T12:13:43;23.80;1.00
21331;DHT22;10824;51.632;4.950;2022-08-27T12:32:30;24.00;1.00
21331;DHT22;10824;51.632;4.950;2022-08-27T12:37:36;24.00;1.00
21331;DHT22;10824;51.632;4.950;2022-08-27T12:40:20;24.00;1.00
21331;DHT22;10824;51.632;4.950;2022-08-27T12:43:02;24.00;1.00
21331;DHT22;10824;51.632;4.950;2022-08-27T12:45:30;24.30;1.00
21331;DHT22;10824;51.632;4.950;2022-08-27T12:47:57;24.40;1.00
21331;DHT22;10824;51.632;4.950;2022-08-27T12:50:26;24.00;1.00
21331;DHT22;10824;51.632;4.950;2022-08-27T12:58:57;23.60;1.00
21331;DHT22;10824;51.632;4.950;2022-08-27T13:04:30;23.50;1.00
21331;DHT22;10824;51.632;4.950;2022-08-27T13:06:59;23.60;1.00
21331;DHT22;10824;51.632;4.950;2022-08-27T13:09:33;23.30;1.00
21331;DHT22;10824;51.632;4.950;2022-08-27T13:12:03;23.50;1.00
21331;DHT22;10824;51.632;4.950;2022-08-27T13:14:36;23.40;1.90
21331;DHT22;10824;51.632;4.950;2022-08-27T13:17:08;23.50;2.10
21331;DHT22;10824;51.632;4.950;2022-08-27T13:19:49;23.30;2.60
21331;DHT22;10824;51.632;4.950;2022-08-27T13:22:36;23.30;2.60
21331;DHT22;10824;51.632;4.950;2022-08-27T13:25:09;23.20;3.30
21331;DHT22;10824;51.632;4.950;2022-08-27T13:27:54;23.10;3.00
21331;DHT22;10824;51.632;4.950;2022-08-27T13:30:23;23.20;3.80
21331;DHT22;10824;51.632;4.950;2022-08-27T13:33:04;23.10;3.20
21331;DHT22;10824;51.632;4.950;2022-08-27T13:35:32;23.20;1.60
21331;DHT22;10824;51.632;4.950;2022-08-27T13:38:01;23.00;2.20
21331;DHT22;10824;51.632;4.950;2022-08-27T13:40:33;23.10;1.80
21331;DHT22;10824;51.632;4.950;2022-08-27T13:43:10;23.20;2.20
21331;DHT22;10824;51.632;4.950;2022-08-27T13:45:39;23.30;1.20
21331;DHT22;10824;51.632;4.950;2022-08-27T13:48:07;23.20;1.00
21331;DHT22;10824;51.632;4.950;2022-08-27T13:50:50;22.80;3.50
21331;DHT22;10824;51.632;4.950;2022-08-27T13:53:29;23.00;1.30
21331;DHT22;10824;51.632;4.950;2022-08-27T13:56:28;23.00;1.00
21331;DHT22;10824;51.632;4.950;2022-08-27T13:59:26;23.30;1.00
21331;DHT22;10824;51.632;4.950;2022-08-27T14:02:00;23.40;1.00
21331;DHT22;10824;51.632;4.950;2022-08-27T14:04:35;23.30;1.50
21331;DHT22;10824;51.632;4.950;2022-08-27T14:09:55;23.00;3.10
21331;DHT22;10824;51.632;4.950;2022-08-27T14:12:39;23.30;1.40
21331;DHT22;10824;51.632;4.950;2022-08-27T14:15:23;23.70;1.00
21331;DHT22;10824;51.632;4.950;2022-08-27T14:17:54;23.30;1.00
21331;DHT22;10824;51.632;4.950;2022-08-27T14:20:25;23.50;1.00
21331;DHT22;10824;51.632;4.950;2022-08-27T14:22:53;23.70;1.00
21331;DHT22;10824;51.632;4.950;2022-08-27T14:25:21;23.70;1.00
21331;DHT22;10824;51.632;4.950;2022-08-27T14:27:51;23.60;1.00
21331;DHT22;10824;51.632;4.950;2022-08-27T14:30:25;23.70;1.00
21331;DHT22;10824;51.632;4.950;2022-08-27T14:32:57;23.50;1.00
21331;DHT22;10824;51.632;4.950;2022-08-27T14:35:29;23.70;1.00
21331;DHT22;10824;51.632;4.950;2022-08-27T14:37:58;23.70;1.00
21331;DHT22;10824;51.632;4.950;2022-08-27T14:40:27;23.80;1.00
21331;DHT22;10824;51.632;4.950;2022-08-27T14:42:58;23.90;1.00
21331;DHT22;10824;51.632;4.950;2022-08-27T14:45:25;23.80;1.00
21331;DHT22;10824;51.632;4.950;2022-08-27T14:47:53;23.70;1.00
21331;DHT22;10824;51.632;4.950;2022-08-27T14:50:28;23.70;1.00
21331;DHT22;10824;51.632;4.950;2022-08-27T14:52:55;23.60;1.00
21331;DHT22;10824;51.632;4.950;2022-08-27T14:55:22;23.30;1.00
21331;DHT22;10824;51.632;4.950;2022-08-27T14:57:49;23.30;1.00
21331;DHT22;10824;51.632;4.950;2022-08-27T15:00:17;23.30;1.00
21331;DHT22;10824;51.632;4.950;2022-08-27T15:02:46;23.10;1.00
21331;DHT22;10824;51.632;4.950;2022-08-27T15:05:15;23.10;1.00
21331;DHT22;10824;51.632;4.950;2022-08-27T15:07:43;23.20;1.00
21331;DHT22;10824;51.632;4.950;2022-08-27T15:10:13;23.20;1.00
21331;DHT22;10824;51.632;4.950;2022-08-27T15:12:41;23.10;1.00
21331;DHT22;10824;51.632;4.950;2022-08-27T15:15:08;23.00;1.00
21331;DHT22;10824;51.632;4.950;2022-08-27T15:17:36;23.30;1.00
21331;DHT22;10824;51.632;4.950;2022-08-27T15:20:07;23.40;1.00
21331;DHT22;10824;51.632;4.950;2022-08-27T15:22:37;23.40;1.00
21331;DHT22;10824;51.632;4.950;2022-08-27T15:25:11;23.30;1.00
21331;DHT22;10824;51.632;4.950;2022-08-27T15:27:39;23.30;1.00
21331;DHT22;10824;51.632;4.950;2022-08-27T15:30:09;23.30;1.00
21331;DHT22;10824;51.632;4.950;2022-08-27T15:32:40;23.20;1.00
21331;DHT22;10824;51.632;4.950;2022-08-27T15:35:11;23.30;1.00
21331;DHT22;10824;51.632;4.950;2022-08-27T15:37:40;23.40;1.00
21331;DHT22;10824;51.632;4.950;2022-08-27T15:40:08;23.20;1.00
21331;DHT22;10824;51.632;4.950;2022-08-27T15:42:36;23.20;1.00
21331;DHT22;10824;51.632;4.950;2022-08-27T15:45:04;23.20;1.00
21331;DHT22;10824;51.632;4.950;2022-08-27T15:47:31;23.30;1.00
21331;DHT22;10824;51.632;4.950;2022-08-27T15:49:59;23.20;1.00
21331;DHT22;10824;51.632;4.950;2022-08-27T15:52:26;23.40;1.00
21331;DHT22;10824;51.632;4.950;2022-08-27T15:55:21;23.30;1.00
21331;DHT22;10824;51.632;4.950;2022-08-27T15:57:49;23.30;1.00
21331;DHT22;10824;51.632;4.950;2022-08-27T16:00:17;23.30;1.00
21331;DHT22;10824;51.632;4.950;2022-08-27T16:02:45;23.30;1.00
21331;DHT22;10824;51.632;4.950;2022-08-27T16:05:13;23.30;1.00
21331;DHT22;10824;51.632;4.950;2022-08-27T16:07:42;23.10;1.00
21331;DHT22;10824;51.632;4.950;2022-08-27T16:10:13;23.10;1.00
21331;DHT22;10824;51.632;4.950;2022-08-27T16:12:40;23.00;1.00
21331;DHT22;10824;51.632;4.950;2022-08-27T16:15:07;23.00;1.00
21331;DHT22;10824;51.632;4.950;2022-08-27T16:17:35;22.80;1.00
21331;DHT22;10824;51.632;4.950;2022-08-27T16:20:04;22.70;1.40
21331;DHT22;10824;51.632;4.950;2022-08-27T16:22:32;22.90;1.40
21331;DHT22;10824;51.632;4.950;2022-08-27T16:25:01;22.80;2.00
21331;DHT22;10824;51.632;4.950;2022-08-27T16:27:28;22.90;1.40
21331;DHT22;10824;51.632;4.950;2022-08-27T16:29:55;22.70;1.00
21331;DHT22;10824;51.632;4.950;2022-08-27T16:32:25;22.50;1.10
21331;DHT22;10824;51.632;4.950;2022-08-27T16:34:54;22.60;1.70
21331;DHT22;10824;51.632;4.950;2022-08-27T16:37:23;22.70;1.20
21331;DHT22;10824;51.632;4.950;2022-08-27T16:39:54;22.70;2.50
21331;DHT22;10824;51.632;4.950;2022-08-27T16:42:21;22.60;2.30
21331;DHT22;10824;51.632;4.950;2022-08-27T16:44:49;22.40;2.60
21331;DHT22;10824;51.632;4.950;2022-08-27T16:47:16;22.50;3.10
21331;DHT22;10824;51.632;4.950;2022-08-27T16:49:45;22.50;4.60
21331;DHT22;10824;51.632;4.950;2022-08-27T16:52:30;22.50;4.00
21331;DHT22;10824;51.632;4.950;2022-08-27T16:54:57;22.60;5.30
21331;DHT22;10824;51.632;4.950;2022-08-27T16:57:25;22.40;6.30
21331;DHT22;10824;51.632;4.950;2022-08-27T16:59:52;22.50;5.90
21331;DHT22;10824;51.632;4.950;2022-08-27T17:02:27;22.50;6.90
21331;DHT22;10824;51.632;4.950;2022-08-27T17:04:59;22.30;8.00
21331;DHT22;10824;51.632;4.950;2022-08-27T17:07:47;22.30;9.10
21331;DHT22;10824;51.632;4.950;2022-08-27T17:10:18;22.40;9.20
21331;DHT22;10824;51.632;4.950;2022-08-27T17:12:46;22.30;10.20
21331;DHT22;10824;51.632;4.950;2022-08-27T17:15:15;22.30;11.30
21331;DHT22;10824;51.632;4.950;2022-08-27T17:17:43;22.30;11.50
21331;DHT22;10824;51.632;4.950;2022-08-27T17:20:11;22.10;11.70
21331;DHT22;10824;51.632;4.950;2022-08-27T17:22:40;22.10;12.30
21331;DHT22;10824;51.632;4.950;2022-08-27T17:25:08;22.20;11.50
21331;DHT22;10824;51.632;4.950;2022-08-27T17:27:35;22.00;12.30
21331;DHT22;10824;51.632;4.950;2022-08-27T17:30:04;22.00;12.30
21331;DHT22;10824;51.632;4.950;2022-08-27T17:32:34;21.80;13.50
21331;DHT22;10824;51.632;4.950;2022-08-27T17:35:04;21.70;14.00
21331;DHT22;10824;51.632;4.950;2022-08-27T17:37:32;21.80;15.30
21331;DHT22;10824;51.632;4.950;2022-08-27T17:39:59;21.60;17.50
21331;DHT22;10824;51.632;4.950;2022-08-27T17:42:27;21.60;18.70
21331;DHT22;10824;51.632;4.950;2022-08-27T17:44:55;21.60;19.70
21331;DHT22;10824;51.632;4.950;2022-08-27T17:47:23;21.40;22.70
21331;DHT22;10824;51.632;4.950;2022-08-27T17:49:52;21.20;23.20